Time;durP1;ratioP1;P1;durP2;ratioP2;P2;SDS_P1;SDS_P2;PMS_P1;PMS_P2;Temp;Humidity;BMP_temperature;BMP_pressure;BME280_temperature;BME280_humidity;BME280_pressure;Samples;Min_cycle;Max_cycle;Signal;HPM_P1;HPM_P2
2022/04/08 00:01:40;;;;;;;3.60;1.40;;;;;;;9.20;71.02;97482.53;107782;1276;25254;-79
2022/04/08 00:04:08;;;;;;;2.80;1.10;;;;;;;9.26;70.97;97484.35;108106;1276;23954;-75
2022/04/08 00:06:35;;;;;;;2.00;1.30;;;;;;;9.22;70.60;97470.27;106503;1275;26063;-73
2022/04/08 00:09:02;;;;;;;1.60;1.20;;;;;;;9.25;70.67;97474.52;106521;1276;24176;-75
2022/04/08 00:11:29;;;;;;;2.30;1.50;;;;;;;9.29;70.67;97474.86;106201;1276;24330;-78
2022/04/08 00:13:56;;;;;;;2.60;1.50;;;;;;;9.29;70.42;97485.07;106344;1276;25257;-75
2022/04/08 00:16:23;;;;;;;3.10;1.50;;;;;;;9.29;70.10;97493.45;105914;1276;25207;-76
2022/04/08 00:18:50;;;;;;;2.40;1.30;;;;;;;9.26;70.13;97495.70;105954;1276;24544;-73
2022/04/08 00:21:17;;;;;;;1.50;1.20;;;;;;;9.23;70.20;97492.19;105720;1279;22480;-77
2022/04/08 00:23:45;;;;;;;2.70;1.50;;;;;;;9.17;70.26;97492.67;105850;1277;24530;-72
2022/04/08 00:26:12;;;;;;;3.30;1.60;;;;;;;9.13;70.19;97496.16;105832;1279;22528;-78
2022/04/08 00:28:39;;;;;;;2.20;1.30;;;;;;;9.16;70.22;97487.27;105967;1278;25265;-76
2022/04/08 00:31:07;;;;;;;1.70;1.30;;;;;;;9.16;69.94;97487.42;106031;1278;23233;-76
2022/04/08 00:33:34;;;;;;;4.20;1.30;;;;;;;9.15;70.03;97482.20;106235;1277;24245;-77
2022/04/08 00:36:01;;;;;;;3.20;2.00;;;;;;;9.19;69.85;97479.75;106870;1278;25269;-75
2022/04/08 00:38:28;;;;;;;3.30;1.40;;;;;;;9.17;69.71;97464.79;105591;1285;22620;-75
2022/04/08 00:40:55;;;;;;;3.20;1.10;;;;;;;9.19;69.53;97457.61;105644;1281;24260;-77
2022/04/08 00:43:35;;;;;;;4.70;1.40;;;;;;;9.20;69.32;97451.26;105390;1284;24273;-81
2022/04/08 00:46:04;;;;;;;2.80;1.80;;;;;;;9.19;69.11;97448.53;105447;1281;25620;-77
2022/04/08 00:48:32;;;;;;;2.80;1.40;;;;;;;9.18;69.04;97444.68;105435;1281;22661;-76
2022/04/08 00:50:59;;;;;;;3.20;1.70;;;;;;;9.21;68.82;97455.11;105484;1281;25257;-76
2022/04/08 00:53:28;;;;;;;2.10;1.10;;;;;;;9.22;68.75;97453.98;105663;1281;24088;-75
2022/04/08 00:55:55;;;;;;;3.30;1.60;;;;;;;9.19;68.78;97456.73;105743;1281;22741;-75
2022/04/08 00:58:24;;;;;;;2.50;1.30;;;;;;;9.19;68.72;97457.83;105882;1278;24267;-76
2022/04/08 01:00:50;;;;;;;2.10;1.30;;;;;;;9.18;68.77;97467.52;105987;1277;22552;-76
2022/04/08 01:03:18;;;;;;;3.10;1.90;;;;;;;9.15;68.81;97459.39;105982;1278;22772;-78
2022/04/08 01:05:45;;;;;;;2.60;1.30;;;;;;;9.11;68.80;97465.40;105752;1278;22818;-76
2022/04/08 01:08:14;;;;;;;2.90;1.00;;;;;;;9.11;68.99;97464.17;105858;1279;25385;-76
2022/04/08 01:10:42;;;;;;;2.10;1.40;;;;;;;9.10;68.95;97462.96;105775;1279;24284;-75
2022/04/08 01:13:09;;;;;;;3.50;1.10;;;;;;;9.10;68.97;97475.77;105825;1278;22617;-76
2022/04/08 01:15:36;;;;;;;3.20;1.40;;;;;;;9.13;68.96;97478.66;105918;1279;25258;-78
2022/04/08 01:18:05;;;;;;;4.00;1.20;;;;;;;9.10;68.98;97476.48;106231;1279;22572;-76
2022/04/08 01:20:33;;;;;;;2.40;1.10;;;;;;;9.09;68.79;97479.71;106536;1276;25380;-75
2022/04/08 01:23:00;;;;;;;3.00;1.40;;;;;;;9.06;68.72;97480.90;106124;1276;22711;-75
2022/04/08 01:25:28;;;;;;;2.50;1.30;;;;;;;9.03;68.60;97489.84;105843;1276;24786;-77
2022/04/08 01:27:55;;;;;;;2.50;1.50;;;;;;;9.01;68.60;97497.48;106025;1276;24233;-74
2022/04/08 01:30:22;;;;;;;2.60;1.50;;;;;;;9.00;68.75;97493.66;105829;1279;22554;-75
2022/04/08 01:32:50;;;;;;;1.40;1.10;;;;;;;9.01;68.55;97498.71;106191;1276;25261;-74
2022/04/08 01:35:18;;;;;;;1.30;1.10;;;;;;;9.00;68.64;97504.58;105911;1277;25256;-76
2022/04/08 01:37:45;;;;;;;1.60;1.20;;;;;;;8.95;68.53;97500.59;106006;1276;22577;-76
2022/04/08 01:40:13;;;;;;;2.00;1.40;;;;;;;8.90;68.38;97511.84;105933;1276;25664;-73
2022/04/08 01:42:40;;;;;;;2.80;1.50;;;;;;;8.88;68.28;97515.50;105986;1276;25263;-74
2022/04/08 01:45:08;;;;;;;1.90;1.50;;;;;;;8.90;68.07;97513.48;106021;1276;22653;-74
2022/04/08 01:47:35;;;;;;;1.70;1.30;;;;;;;8.89;68.04;97518.94;105992;1276;24241;-74
2022/04/08 01:50:03;;;;;;;2.60;1.50;;;;;;;8.88;68.10;97534.41;105992;1275;25404;-74
2022/04/08 01:52:30;;;;;;;2.40;1.30;;;;;;;8.85;68.15;97525.64;105362;1281;22886;-75
2022/04/08 01:54:57;;;;;;;2.50;1.40;;;;;;;8.87;68.15;97534.84;105429;1281;24763;-74
2022/04/08 01:57:24;;;;;;;2.20;1.30;;;;;;;8.83;68.08;97537.30;105509;1281;24398;-75
2022/04/08 01:59:52;;;;;;;2.80;1.40;;;;;;;8.82;67.84;97554.92;105332;1282;22635;-75
2022/04/08 02:02:20;;;;;;;4.30;1.60;;;;;;;8.79;67.46;97550.66;105602;1281;24535;-75
2022/04/08 02:04:47;;;;;;;2.00;1.30;;;;;;;8.80;67.26;97536.41;105344;1281;24298;-75
2022/04/08 02:07:14;;;;;;;2.50;1.30;;;;;;;8.79;66.60;97554.35;105394;1281;25389;-74
2022/04/08 02:09:41;;;;;;;3.80;1.30;;;;;;;8.72;66.10;97552.53;105699;1281;24277;-73
2022/04/08 02:12:09;;;;;;;1.50;1.00;;;;;;;8.72;65.95;97561.36;105920;1279;24772;-77
2022/04/08 02:14:37;;;;;;;3.30;1.40;;;;;;;8.66;65.42;97566.54;105747;1281;22598;-78
2022/04/08 02:17:04;;;;;;;3.50;1.70;;;;;;;8.61;64.91;97554.29;105730;1281;22479;-80
2022/04/08 02:19:32;;;;;;;4.80;1.60;;;;;;;8.60;64.28;97558.39;105665;1281;25274;-77
2022/04/08 02:21:59;;;;;;;3.80;1.60;;;;;;;8.55;64.18;97550.18;105687;1279;22769;-75
2022/04/08 02:24:27;;;;;;;4.10;1.20;;;;;;;8.54;63.81;97569.52;105581;1279;24015;-76
2022/04/08 02:26:54;;;;;;;3.40;1.40;;;;;;;8.49;63.27;97562.36;105470;1281;25252;-76
2022/04/08 02:29:22;;;;;;;3.70;1.60;;;;;;;8.50;62.65;97568.23;105475;1279;22531;-78
2022/04/08 02:31:49;;;;;;;2.80;1.50;;;;;;;8.46;62.50;97572.48;105266;1281;22625;-78
2022/04/08 02:34:18;;;;;;;2.80;1.00;;;;;;;8.40;62.78;97572.06;106070;1278;25367;-78
2022/04/08 02:36:45;;;;;;;3.30;1.70;;;;;;;8.37;62.88;97568.33;106012;1277;22554;-78
2022/04/08 02:39:12;;;;;;;4.80;1.40;;;;;;;8.37;63.05;97569.58;105885;1278;24226;-79
2022/04/08 02:41:39;;;;;;;4.20;1.30;;;;;;;8.33;62.99;97571.48;106029;1278;22558;-76
2022/04/08 02:44:06;;;;;;;1.20;0.90;;;;;;;8.26;63.00;97578.09;106449;1277;22688;-79
2022/04/08 02:46:33;;;;;;;2.30;1.10;;;;;;;8.23;63.05;97574.74;106019;1277;22739;-81
2022/04/08 02:49:00;;;;;;;2.50;1.40;;;;;;;8.21;63.07;97580.25;106065;1277;22718;-78
2022/04/08 02:51:28;;;;;;;2.70;1.00;;;;;;;8.21;63.24;97587.63;105965;1276;22564;-79
2022/04/08 02:53:57;;;;;;;2.80;1.10;;;;;;;8.22;62.95;97582.50;105976;1278;22615;-78
2022/04/08 02:56:24;;;;;;;1.70;1.20;;;;;;;8.17;62.91;97584.66;105898;1276;25260;-77
2022/04/08 02:58:51;;;;;;;3.00;1.40;;;;;;;8.15;63.01;97591.95;106560;1277;24251;-76
2022/04/08 03:01:18;;;;;;;6.40;1.30;;;;;;;8.14;63.17;97596.70;105715;1277;22534;-77
2022/04/08 03:03:45;;;;;;;3.30;1.20;;;;;;;8.13;63.07;97593.96;105740;1276;24299;-78
2022/04/08 03:06:12;;;;;;;3.50;1.10;;;;;;;8.13;63.17;97590.25;105475;1281;22534;-77
2022/04/08 03:08:39;;;;;;;3.20;1.30;;;;;;;8.15;63.10;97596.85;104705;1287;25674;-76
2022/04/08 03:11:06;;;;;;;2.60;1.20;;;;;;;8.14;63.08;97597.24;104738;1286;25384;-76
2022/04/08 03:13:33;;;;;;;4.70;1.20;;;;;;;8.12;63.02;97594.52;103997;1296;22559;-77
2022/04/08 03:16:01;;;;;;;4.00;1.50;;;;;;;8.10;63.12;97594.92;103813;1296;24433;-78
2022/04/08 03:18:28;;;;;;;3.50;1.50;;;;;;;8.13;63.01;97598.16;103888;1296;22563;-77
2022/04/08 03:20:55;;;;;;;3.30;1.00;;;;;;;8.11;62.73;97598.92;103808;1294;22678;-77
2022/04/08 03:23:22;;;;;;;3.90;1.30;;;;;;;8.06;62.64;97600.73;103804;1296;22569;-75
2022/04/08 03:25:49;;;;;;;1.90;1.20;;;;;;;8.01;62.74;97607.26;104435;1290;25467;-75
2022/04/08 03:28:16;;;;;;;4.90;1.90;;;;;;;7.99;62.72;97602.44;105338;1281;24092;-76
2022/04/08 03:30:42;;;;;;;4.70;1.40;;;;;;;7.96;62.65;97603.81;105312;1281;22859;-75
2022/04/08 03:33:09;;;;;;;3.30;1.50;;;;;;;7.95;62.82;97605.76;106030;1277;26518;-75
2022/04/08 03:35:36;;;;;;;3.80;1.30;;;;;;;7.96;62.63;97611.84;105874;1278;24223;-74
2022/04/08 03:38:04;;;;;;;6.90;1.60;;;;;;;7.94;62.55;97612.98;105921;1277;24342;-76
2022/04/08 03:40:33;;;;;;;2.90;1.00;;;;;;;7.92;62.67;97607.81;105889;1276;22540;-75
2022/04/08 03:43:00;;;;;;;4.00;2.10;;;;;;;7.89;62.59;97601.96;106026;1276;22556;-75
2022/04/08 03:45:27;;;;;;;4.70;1.40;;;;;;;7.89;62.61;97603.38;106254;1276;24277;-76
2022/04/08 03:47:53;;;;;;;2.50;1.40;;;;;;;7.89;62.36;97600.91;106790;1276;22508;-78
2022/04/08 03:50:20;;;;;;;2.50;1.10;;;;;;;7.90;62.30;97606.48;107141;1277;26625;-73
2022/04/08 03:52:47;;;;;;;2.80;1.20;;;;;;;7.93;62.19;97611.63;106585;1278;22547;-76
2022/04/08 03:55:14;;;;;;;5.20;1.40;;;;;;;7.92;61.83;97603.27;106092;1278;22537;-75
2022/04/08 03:57:41;;;;;;;4.40;1.60;;;;;;;7.92;61.67;97610.44;105782;1277;24288;-75
2022/04/08 04:00:08;;;;;;;4.00;1.40;;;;;;;7.94;61.13;97607.55;105871;1278;22756;-76
2022/04/08 04:02:38;;;;;;;7.00;1.20;;;;;;;7.93;61.14;97622.80;105965;1278;22664;-76
2022/04/08 04:05:06;;;;;;;3.10;1.80;;;;;;;7.95;61.31;97650.45;106005;1278;25360;-75
2022/04/08 04:07:33;;;;;;;4.90;1.40;;;;;;;7.84;61.23;97648.25;105981;1278;25377;-73
2022/04/08 04:10:00;;;;;;;2.60;1.10;;;;;;;7.68;61.38;97639.30;106282;1276;22703;-80
2022/04/08 04:12:27;;;;;;;3.20;1.30;;;;;;;7.47;62.08;97636.79;105853;1276;24373;-76
2022/04/08 04:14:56;;;;;;;2.40;1.40;;;;;;;7.24;62.80;97640.87;105767;1278;25950;-77
2022/04/08 04:17:23;;;;;;;4.40;1.50;;;;;;;7.10;63.37;97642.99;106091;1277;22701;-79
2022/04/08 04:19:50;;;;;;;3.30;1.20;;;;;;;7.07;63.88;97644.00;106297;1275;22552;-84
2022/04/08 04:22:17;;;;;;;3.30;1.10;;;;;;;7.09;64.33;97645.70;106950;1276;22605;-79
2022/04/08 04:24:44;;;;;;;3.30;1.40;;;;;;;7.10;64.71;97647.05;107963;1274;22700;-83
2022/04/08 04:27:11;;;;;;;3.80;1.10;;;;;;;7.11;64.85;97650.66;108002;1277;24273;-82
2022/04/08 04:29:38;;;;;;;4.30;1.10;;;;;;;7.15;64.94;97648.07;107958;1277;25952;-82
2022/04/08 04:32:06;;;;;;;3.50;1.40;;;;;;;7.23;64.77;97656.14;106923;1277;25613;-83
2022/04/08 04:34:36;;;;;;;7.40;1.50;;;;;;;7.26;64.71;97661.11;106078;1278;25478;-83
2022/04/08 04:37:08;;;;;;;3.10;1.30;;;;;;;7.29;64.73;97661.51;105938;1277;24418;-81
2022/04/08 04:39:36;;;;;;;5.60;1.60;;;;;;;7.34;64.50;97662.73;106262;1277;22555;-83
2022/04/08 04:42:04;;;;;;;4.40;1.60;;;;;;;7.37;64.35;97658.22;106058;1277;25526;-85
2022/04/08 04:44:31;;;;;;;3.80;1.50;;;;;;;7.39;64.29;97660.08;105986;1277;22537;-86
2022/04/08 04:46:58;;;;;;;2.50;1.60;;;;;;;7.46;63.71;97674.52;106007;1277;24116;-80
2022/04/08 04:49:24;;;;;;;1.80;1.20;;;;;;;7.48;63.34;97667.25;106060;1278;24348;-85
2022/04/08 04:51:55;;;;;;;3.70;1.40;;;;;;;7.49;63.14;97670.36;106132;1276;22553;-82
2022/04/08 04:54:22;;;;;;;3.80;1.40;;;;;;;7.54;62.82;97677.17;106025;1277;25267;-79
2022/04/08 04:56:48;;;;;;;3.50;1.30;;;;;;;7.59;62.73;97680.46;106058;1276;25272;-77
2022/04/08 04:59:15;;;;;;;2.50;1.70;;;;;;;7.60;62.33;97677.63;105986;1277;22568;-75
2022/04/08 05:01:42;;;;;;;3.10;1.40;;;;;;;7.65;62.54;97685.66;105912;1277;22558;-79
2022/04/08 05:04:09;;;;;;;2.90;1.30;;;;;;;7.67;62.53;97683.30;106010;1277;22764;-77
2022/04/08 05:06:36;;;;;;;2.80;1.30;;;;;;;7.65;62.58;97687.08;106462;1277;24407;-82
2022/04/08 05:09:04;;;;;;;4.10;1.40;;;;;;;7.65;62.77;97689.86;105818;1278;23924;-80
2022/04/08 05:11:33;;;;;;;3.50;1.60;;;;;;;7.66;63.21;97699.46;106136;1277;22554;-84
2022/04/08 05:14:00;;;;;;;5.20;1.80;;;;;;;7.69;63.35;97701.61;106054;1277;22560;-80
2022/04/08 05:16:29;;;;;;;4.20;1.60;;;;;;;7.68;63.33;97711.80;106550;1277;23172;-78
2022/04/08 05:18:56;;;;;;;2.40;1.10;;;;;;;7.65;63.61;97721.73;107229;1277;22531;-78
2022/04/08 05:21:23;;;;;;;3.10;1.30;;;;;;;7.57;63.18;97713.48;106904;1275;25328;-80
2022/04/08 05:23:50;;;;;;;4.80;1.50;;;;;;;7.51;63.13;97703.05;106971;1276;25402;-79
2022/04/08 05:26:18;;;;;;;4.60;1.50;;;;;;;7.49;63.29;97708.54;106665;1281;26113;-79
2022/04/08 05:28:46;;;;;;;4.10;1.30;;;;;;;7.49;63.36;97709.42;107526;1281;22731;-79
2022/04/08 05:31:13;;;;;;;4.00;1.50;;;;;;;7.50;63.37;97718.29;106385;1282;25542;-79
2022/04/08 05:33:40;;;;;;;7.20;2.00;;;;;;;7.53;63.24;97713.64;107811;1281;22638;-84
2022/04/08 05:36:07;;;;;;;3.00;1.20;;;;;;;7.54;63.37;97721.81;108437;1280;22613;-84
2022/04/08 05:38:34;;;;;;;4.40;1.10;;;;;;;7.59;63.25;97733.71;106879;1281;26577;-84
2022/04/08 05:41:01;;;;;;;3.60;1.30;;;;;;;7.62;63.24;97731.33;106531;1281;22576;-84
2022/04/08 05:43:29;;;;;;;2.90;1.60;;;;;;;7.65;63.00;97745.75;106784;1281;25331;-84
2022/04/08 05:45:56;;;;;;;2.00;1.10;;;;;;;7.67;62.83;97730.74;106881;1276;22524;-84
2022/04/08 05:48:23;;;;;;;3.60;1.50;;;;;;;7.68;62.09;97737.40;106914;1276;22588;-84
2022/04/08 05:50:50;;;;;;;7.40;2.10;;;;;;;7.73;61.64;97733.89;107222;1281;22596;-83
2022/04/08 05:53:17;;;;;;;3.80;1.30;;;;;;;7.74;61.22;97744.14;106951;1282;22539;-84
2022/04/08 05:56:03;;;;;;;2.70;0.80;;;;;;;7.76;61.19;97733.20;106815;1281;24241;-85
2022/04/08 05:58:31;;;;;;;5.00;1.50;;;;;;;7.78;60.39;97742.10;107152;1281;22675;-85
2022/04/08 06:00:59;;;;;;;2.40;0.90;;;;;;;7.78;60.60;97751.88;107357;1281;22696;-83
2022/04/08 06:03:26;;;;;;;2.40;1.30;;;;;;;7.78;60.92;97753.98;106855;1281;22603;-85
2022/04/08 06:05:54;;;;;;;3.80;1.00;;;;;;;7.75;61.03;97751.47;107092;1281;22598;-84
2022/04/08 06:08:22;;;;;;;5.80;1.20;;;;;;;7.71;61.49;97745.02;107725;1276;22832;-83
2022/04/08 06:10:49;;;;;;;2.50;1.10;;;;;;;7.70;61.71;97747.31;109138;1276;22543;-85
2022/04/08 06:13:17;;;;;;;1.40;0.90;;;;;;;7.64;61.53;97742.45;108821;1276;22574;-83
2022/04/08 06:15:44;;;;;;;1.50;0.80;;;;;;;7.61;61.45;97757.62;108922;1276;22569;-84
2022/04/08 06:18:13;;;;;;;2.20;0.90;;;;;;;7.61;61.46;97755.52;108738;1276;22646;-83
2022/04/08 06:20:40;;;;;;;1.70;1.00;;;;;;;7.62;61.61;97759.16;108162;1275;24240;-83
2022/04/08 06:23:07;;;;;;;3.70;1.40;;;;;;;7.60;61.16;97743.11;108248;1276;22652;-84
2022/04/08 06:25:34;;;;;;;3.10;1.20;;;;;;;7.59;60.74;97743.54;108556;1276;22639;-84
2022/04/08 06:28:04;;;;;;;2.00;0.90;;;;;;;7.59;61.12;97753.16;108255;1276;22641;-84
2022/04/08 06:30:36;;;;;;;3.90;1.40;;;;;;;7.58;60.98;97747.58;107694;1277;22622;-83
2022/04/08 06:33:05;;;;;;;3.00;1.10;;;;;;;7.60;60.96;97768.16;107072;1276;22500;-85
2022/04/08 06:35:33;;;;;;;3.60;1.00;;;;;;;7.62;60.93;97784.56;106505;1282;23930;-84
2022/04/08 06:38:06;;;;;;;1.70;1.30;;;;;;;7.59;61.09;97831.27;107986;1281;23565;-85
2022/04/08 06:40:38;;;;;;;1.80;0.80;;;;;;;7.44;63.82;97843.41;107621;1284;22554;-85
2022/04/08 06:43:07;;;;;;;0.90;0.80;;;;;;;7.08;65.57;97839.24;107818;1284;22712;-83
2022/04/08 06:45:36;;;;;;;3.10;1.00;;;;;;;6.82;66.63;97831.95;107090;1284;22547;-83
2022/04/08 06:48:04;;;;;;;2.90;1.00;;;;;;;6.62;67.43;97839.96;105973;1284;22704;-85
2022/04/08 06:50:35;;;;;;;1.80;0.90;;;;;;;6.51;67.92;97843.47;106005;1284;22541;-85
2022/04/08 06:53:03;;;;;;;1.60;0.90;;;;;;;6.40;68.57;97832.66;106056;1279;24251;-84
2022/04/08 06:55:31;;;;;;;2.20;1.30;;;;;;;6.42;69.27;97848.66;106561;1277;25322;-82
2022/04/08 06:58:00;;;;;;;2.40;1.40;;;;;;;6.41;69.30;97845.73;108257;1277;25376;-83
2022/04/08 07:00:28;;;;;;;3.60;1.40;;;;;;;6.47;69.47;97843.63;108470;1278;22633;-84
2022/04/08 07:02:57;;;;;;;3.90;1.20;;;;;;;6.48;69.59;97854.60;107689;1277;22594;-82
2022/04/08 07:05:25;;;;;;;3.10;1.50;;;;;;;6.57;69.69;97853.06;107609;1277;22554;-85
2022/04/08 07:07:52;;;;;;;1.90;1.20;;;;;;;6.67;69.27;97860.08;106002;1282;26694;-86
2022/04/08 07:10:19;;;;;;;2.90;1.50;;;;;;;6.79;69.17;97864.05;105924;1284;22561;-84
2022/04/08 07:12:47;;;;;;;4.90;1.80;;;;;;;6.92;69.14;97852.42;105997;1284;22663;-83
2022/04/08 07:15:14;;;;;;;4.60;1.70;;;;;;;7.06;68.72;97852.27;106492;1284;26533;-83
2022/04/08 07:17:42;;;;;;;5.20;2.50;;;;;;;7.20;68.39;97857.41;106594;1284;233234;-83
2022/04/08 07:20:17;;;;;;;2.30;1.30;;;;;;;7.35;67.65;97874.52;106138;1284;25543;-83
2022/04/08 07:22:46;;;;;;;5.40;1.80;;;;;;;7.51;67.02;97868.71;106025;1284;23099;-85
2022/04/08 07:25:13;;;;;;;3.00;1.40;;;;;;;7.64;66.12;97874.70;105939;1281;23893;-84
2022/04/08 07:27:49;;;;;;;2.20;1.20;;;;;;;7.72;65.42;97867.59;106921;1277;25332;-83
2022/04/08 07:30:17;;;;;;;;;;;;;;;7.81;64.04;97880.36;106592;1277;24384;-83
2022/04/08 07:32:48;;;;;;;2.40;1.50;;;;;;;7.83;63.87;97882.07;106562;1277;22550;-85
2022/04/08 07:35:16;;;;;;;3.30;1.10;;;;;;;7.87;63.55;97896.10;106164;1277;22562;-85
2022/04/08 07:37:44;;;;;;;1.80;1.20;;;;;;;7.91;63.52;97903.28;106301;1280;25324;-84
2022/04/08 07:40:14;;;;;;;3.30;1.50;;;;;;;8.00;63.60;97910.13;105886;1282;22683;-84
2022/04/08 07:42:42;;;;;;;3.40;1.60;;;;;;;8.05;62.92;97908.38;106367;1281;24691;-85
2022/04/08 07:45:09;;;;;;;2.60;1.40;;;;;;;8.06;63.09;97925.33;106114;1282;24275;-85
2022/04/08 07:47:36;;;;;;;3.50;1.40;;;;;;;8.11;63.01;97923.20;105789;1284;22502;-84
2022/04/08 07:50:10;;;;;;;4.50;1.40;;;;;;;8.14;62.77;97925.95;105973;1282;22554;-84
2022/04/08 07:52:41;;;;;;;3.30;1.40;;;;;;;8.13;62.79;97936.45;105900;1282;23198;-81
2022/04/08 07:55:11;;;;;;;2.00;1.20;;;;;;;8.19;62.85;97937.67;105519;1282;25254;-82
2022/04/08 07:57:47;;;;;;;4.40;1.40;;;;;;;8.28;62.39;97947.47;105600;1278;25256;-83
2022/04/08 08:00:19;;;;;;;4.60;1.40;;;;;;;8.37;62.17;97946.27;106145;1277;22545;-82
2022/04/08 08:02:47;;;;;;;1.60;1.10;;;;;;;8.40;61.35;97942.95;105892;1278;25285;-82
2022/04/08 08:05:16;;;;;;;1.90;1.20;;;;;;;8.38;60.59;97963.91;107248;1277;22548;-83
2022/04/08 08:07:45;;;;;;;1.40;0.80;;;;;;;8.33;60.28;97979.73;106599;1277;22564;-83
2022/04/08 08:10:17;;;;;;;3.20;1.10;;;;;;;8.23;60.28;97967.82;107376;1277;22607;-84
2022/04/08 08:12:44;;;;;;;3.00;1.30;;;;;;;8.22;60.72;97971.02;106295;1277;22522;-84
2022/04/08 08:15:13;;;;;;;3.20;1.40;;;;;;;8.30;61.10;97978.25;106067;1277;22567;-84
2022/04/08 08:17:40;;;;;;;2.70;1.30;;;;;;;8.40;61.23;97989.08;106068;1277;23093;-83
2022/04/08 08:20:09;;;;;;;1.60;1.10;;;;;;;8.51;60.68;97987.27;105774;1278;22878;-84
2022/04/08 08:22:36;;;;;;;1.90;1.20;;;;;;;8.63;60.03;97993.52;105539;1282;22598;-85
2022/04/08 08:25:06;;;;;;;1.70;0.90;;;;;;;8.75;59.66;97990.20;105762;1282;22563;-84
2022/04/08 08:27:39;;;;;;;2.40;1.40;;;;;;;8.84;59.23;97999.17;105333;1283;22568;-84
2022/04/08 08:30:10;;;;;;;1.80;1.00;;;;;;;8.95;58.75;98010.15;104920;1287;26537;-85
2022/04/08 08:32:45;;;;;;;1.40;1.10;;;;;;;8.92;58.25;98007.95;104725;1287;24599;-85
2022/04/08 08:35:14;;;;;;;1.40;1.00;;;;;;;8.92;58.29;98018.13;105039;1288;24002;-84
2022/04/08 08:37:41;;;;;;;3.20;1.30;;;;;;;8.97;57.71;98024.80;105310;1287;22578;-83
2022/04/08 08:40:11;;;;;;;1.40;1.00;;;;;;;9.05;57.55;98022.00;105172;1285;22635;-85
2022/04/08 08:42:40;;;;;;;2.50;1.20;;;;;;;9.20;57.12;98009.29;106045;1284;22550;-86
2022/04/08 08:45:09;;;;;;;1.80;1.00;;;;;;;9.22;56.65;98036.08;105953;1284;25529;-83
2022/04/08 08:47:36;;;;;;;1.30;1.00;;;;;;;9.19;55.51;98023.23;105846;1278;22723;-85
2022/04/08 08:50:07;;;;;;;2.20;0.90;;;;;;;9.20;55.48;98031.59;107091;1278;22579;-84
2022/04/08 08:52:34;;;;;;;1.00;0.70;;;;;;;9.31;55.54;98026.23;106910;1277;23960;-86
2022/04/08 08:55:05;;;;;;;1.30;0.90;;;;;;;9.44;54.96;98046.41;105649;1282;24309;-85
2022/04/08 08:57:32;;;;;;;1.70;1.10;;;;;;;9.48;54.93;98036.05;105948;1281;23285;-85
2022/04/08 09:00:12;;;;;;;1.20;1.10;;;;;;;9.48;54.84;98048.20;105711;1282;22544;-87
2022/04/08 09:02:40;;;;;;;2.00;1.20;;;;;;;9.50;55.61;98051.25;105930;1282;22706;-87
2022/04/08 09:05:15;;;;;;;2.60;1.10;;;;;;;9.46;55.39;98055.28;105838;1282;24991;-84
2022/04/08 09:07:52;;;;;;;1.30;1.10;;;;;;;9.38;55.81;98055.07;106268;1282;24221;-85
2022/04/08 09:10:34;;;;;;;1.90;1.10;;;;;;;9.34;55.38;98061.77;107135;1282;22541;-84
2022/04/08 09:13:04;;;;;;;3.10;1.20;;;;;;;9.29;55.68;98063.89;107547;1277;22629;-84
2022/04/08 09:15:34;;;;;;;1.20;0.90;;;;;;;9.34;55.61;98066.84;108187;1277;22552;-84
2022/04/08 09:18:14;;;;;;;1.60;1.00;;;;;;;9.46;55.05;98079.56;108864;1276;23826;-86
2022/04/08 09:20:44;;;;;;;1.60;0.90;;;;;;;9.64;55.10;98059.82;108540;1277;22497;-85
2022/04/08 09:23:13;;;;;;;1.40;0.90;;;;;;;9.76;54.82;98073.88;108821;1277;22501;-83
2022/04/08 09:25:41;;;;;;;1.90;1.00;;;;;;;9.75;54.14;98082.04;108929;1277;22717;-85
2022/04/08 09:28:15;;;;;;;1.80;1.00;;;;;;;9.70;53.95;98093.51;108959;1277;25458;-83
2022/04/08 09:30:52;;;;;;;1.20;0.80;;;;;;;9.63;54.24;98090.79;108010;1276;22566;-85
2022/04/08 09:33:21;;;;;;;3.30;1.20;;;;;;;9.64;54.22;98091.80;108485;1277;22590;-84
2022/04/08 09:35:50;;;;;;;2.40;1.00;;;;;;;9.71;54.49;98096.10;106679;1277;25419;-84
2022/04/08 09:38:21;;;;;;;1.40;0.90;;;;;;;9.69;54.44;98107.93;106325;1278;24313;-84
2022/04/08 09:40:48;;;;;;;2.00;1.20;;;;;;;9.63;54.54;98101.34;106403;1277;23042;-83
2022/04/08 09:43:17;;;;;;;2.70;1.00;;;;;;;9.66;54.51;98102.24;106200;1277;23934;-83
2022/04/08 09:45:45;;;;;;;4.40;1.30;;;;;;;9.67;54.65;98098.00;106074;1277;25443;-85
2022/04/08 09:48:12;;;;;;;3.20;1.10;;;;;;;9.76;54.56;98110.45;105873;1277;25440;-85
2022/04/08 09:50:40;;;;;;;1.60;1.00;;;;;;;9.77;53.92;98096.71;106249;1277;24108;-84
2022/04/08 09:53:09;;;;;;;3.60;1.30;;;;;;;9.71;53.99;98121.20;105662;1281;22855;-84
2022/04/08 09:55:38;;;;;;;2.40;1.30;;;;;;;9.71;54.62;98119.80;106058;1281;22582;-84
2022/04/08 09:58:13;;;;;;;1.50;1.20;;;;;;;9.78;54.13;98110.02;105102;1285;25003;-84
2022/04/08 10:00:44;;;;;;;1.10;0.90;;;;;;;9.70;54.15;98125.27;105244;1287;23942;-85
2022/04/08 10:03:12;;;;;;;1.90;1.20;;;;;;;9.68;54.53;98128.36;105967;1286;22429;-84
2022/04/08 10:05:39;;;;;;;2.10;1.20;;;;;;;9.97;54.72;98137.00;108088;1284;22626;-86
2022/04/08 10:08:07;;;;;;;1.30;1.00;;;;;;;10.32;53.48;98141.14;108152;1285;22428;-84
2022/04/08 10:10:51;;;;;;;1.80;1.00;;;;;;;10.48;53.29;98129.34;107031;1283;22943;-83
2022/04/08 10:13:46;;;;;;;1.40;1.20;;;;;;;10.56;52.83;98118.96;106368;1287;22620;-85
2022/04/08 10:16:18;;;;;;;1.50;0.90;;;;;;;10.43;52.35;98143.09;105250;1287;25389;-88
2022/04/08 10:18:47;;;;;;;1.60;1.00;;;;;;;10.22;52.68;98143.50;105148;1287;24276;-86
2022/04/08 10:21:15;;;;;;;1.50;1.00;;;;;;;10.06;53.13;98154.39;105221;1287;24316;-84
2022/04/08 10:23:48;;;;;;;1.80;1.10;;;;;;;9.90;53.12;98142.23;105951;1281;25376;-84
2022/04/08 10:26:24;;;;;;;1.20;1.10;;;;;;;9.89;53.67;98144.73;107339;1280;22654;-85
2022/04/08 10:28:53;;;;;;;1.50;1.30;;;;;;;9.93;53.39;98141.22;105962;1287;22734;-84
2022/04/08 10:31:26;;;;;;;2.10;1.20;;;;;;;9.84;53.71;98150.18;105990;1284;22545;-84
2022/04/08 10:33:53;;;;;;;2.50;1.00;;;;;;;9.74;54.01;98151.30;105902;1284;24315;-83
2022/04/08 10:36:40;;;;;;;4.80;1.20;;;;;;;9.60;55.19;98161.02;106133;1284;25382;-84
2022/04/08 10:39:12;;;;;;;1.70;1.20;;;;;;;9.42;56.80;98174.94;105546;1284;22551;-84
2022/04/08 10:41:49;;;;;;;1.50;1.00;;;;;;;9.16;57.41;98190.16;105712;1284;24254;-84
2022/04/08 10:44:29;;;;;;;1.10;0.80;;;;;;;8.97;58.23;98206.84;105871;1284;25489;-85
2022/04/08 10:47:00;;;;;;;1.30;0.70;;;;;;;8.53;58.61;98227.70;106303;1278;22493;-83
2022/04/08 10:49:30;;;;;;;2.10;1.00;;;;;;;8.01;59.72;98238.04;106475;1277;22534;-85
2022/04/08 10:51:57;;;;;;;1.40;1.20;;;;;;;7.75;61.43;98234.35;106538;1278;24309;-84
2022/04/08 10:54:34;;;;;;;3.50;1.00;;;;;;;7.69;62.59;98231.52;106765;1278;22585;-84
2022/04/08 10:57:02;;;;;;;0.80;0.80;;;;;;;7.73;62.94;98241.06;106587;1277;24435;-82
2022/04/08 10:59:29;;;;;;;1.60;1.10;;;;;;;7.79;63.52;98247.69;106279;1277;25946;-84
2022/04/08 11:02:05;;;;;;;1.10;1.00;;;;;;;7.79;63.66;98249.45;106624;1277;22721;-82
2022/04/08 11:04:34;;;;;;;1.10;0.90;;;;;;;7.72;64.52;98253.17;106149;1277;24786;-83
2022/04/08 11:07:06;;;;;;;1.30;0.90;;;;;;;7.54;65.39;98270.55;106360;1277;24318;-83
2022/04/08 11:09:34;;;;;;;1.50;1.00;;;;;;;7.33;66.32;98296.92;106251;1279;22551;-85
2022/04/08 11:12:02;;;;;;;2.10;0.90;;;;;;;7.15;67.40;98300.77;106297;1277;22612;-84
2022/04/08 11:14:29;;;;;;;0.60;0.60;;;;;;;6.98;67.93;98317.34;106216;1277;25849;-84
2022/04/08 11:16:57;;;;;;;0.80;0.80;;;;;;;6.82;68.34;98315.84;106456;1277;22544;-82
2022/04/08 11:19:24;;;;;;;0.70;0.40;;;;;;;6.81;68.50;98308.86;105809;1282;24380;-82
2022/04/08 11:21:56;;;;;;;0.40;0.40;;;;;;;6.76;68.12;98287.13;105626;1281;24321;-81
2022/04/08 11:24:24;;;;;;;0.70;0.40;;;;;;;6.99;68.35;98293.36;105717;1281;25257;-83
2022/04/08 11:26:53;;;;;;;0.60;0.60;;;;;;;7.31;68.33;98306.07;105602;1281;22560;-80
2022/04/08 11:29:27;;;;;;;1.50;0.40;;;;;;;7.70;67.90;98310.17;105408;1282;22530;-82
2022/04/08 11:32:07;;;;;;;1.20;0.40;;;;;;;7.95;67.61;98318.70;105564;1281;25268;-84
2022/04/08 11:34:34;;;;;;;1.00;0.80;;;;;;;8.22;67.61;98316.95;105869;1281;22607;-83
2022/04/08 11:37:01;;;;;;;0.70;0.40;;;;;;;8.31;66.64;98326.64;105998;1278;23963;-82
2022/04/08 11:39:30;;;;;;;1.30;0.80;;;;;;;8.10;65.71;98322.61;105979;1278;24252;-83
2022/04/08 11:42:01;;;;;;;2.10;0.80;;;;;;;7.88;66.17;98316.45;106174;1281;25244;-82